createdAt,value
2018-12-29T00:02:05.314Z,7.00
2018-12-29T00:04:33.191Z,6.90
2018-12-29T00:07:01.097Z,7.00
2018-12-29T00:09:28.610Z,7.00
2018-12-29T00:11:55.988Z,7.00
2018-12-29T00:14:23.767Z,7.00
2018-12-29T00:16:51.874Z,7.00
2018-12-29T00:19:19.887Z,7.00
2018-12-29T00:21:47.388Z,7.00
2018-12-29T00:24:15.526Z,7.00
2018-12-29T00:26:43.416Z,7.00
2018-12-29T00:29:11.126Z,7.10
2018-12-29T00:31:39.357Z,7.00
2018-12-29T00:34:06.950Z,7.10
2018-12-29T00:36:34.472Z,7.10
2018-12-29T00:39:02.321Z,7.10
2018-12-29T00:41:30.521Z,7.10
2018-12-29T00:43:59.021Z,7.00
2018-12-29T00:46:29.088Z,7.10
2018-12-29T00:48:57.612Z,7.00
2018-12-29T00:51:26.105Z,7.00
2018-12-29T00:53:54.659Z,7.10
2018-12-29T00:56:23.148Z,7.10
2018-12-29T00:58:51.833Z,7.10
2018-12-29T01:01:38.638Z,7.10
2018-12-29T01:04:25.158Z,7.10
2018-12-29T01:06:53.311Z,7.10
2018-12-29T01:09:21.499Z,7.10
2018-12-29T01:11:49.474Z,7.10
2018-12-29T01:14:17.460Z,7.10
2018-12-29T01:16:45.209Z,7.10
2018-12-29T01:19:13.351Z,7.10
2018-12-29T01:21:41.951Z,7.10
2018-12-29T01:24:10.220Z,7.10
2018-12-29T01:26:38.638Z,7.10
2018-12-29T01:29:06.596Z,7.10
2018-12-29T01:31:34.952Z,7.10
2018-12-29T01:34:03.333Z,7.10
2018-12-29T01:36:31.482Z,7.10
2018-12-29T01:38:59.389Z,7.10
2018-12-29T01:41:27.170Z,7.10
2018-12-29T01:43:55.611Z,7.10
2018-12-29T01:46:23.445Z,7.10
2018-12-29T01:48:51.918Z,7.10
2018-12-29T01:51:20.441Z,7.10
2018-12-29T01:53:48.756Z,7.20
2018-12-29T01:56:16.798Z,7.20
2018-12-29T01:58:44.979Z,7.20
2018-12-29T02:01:13.574Z,7.10
2018-12-29T02:03:41.835Z,7.20
2018-12-29T02:06:09.973Z,7.20
2018-12-29T02:08:38.484Z,7.20
2018-12-29T02:11:06.451Z,7.20
2018-12-29T02:13:34.221Z,7.20
2018-12-29T02:16:02.270Z,7.20
2018-12-29T02:18:30.796Z,7.20
2018-12-29T02:20:58.856Z,7.20
2018-12-29T02:23:27.316Z,7.20
2018-12-29T02:25:55.393Z,7.20
2018-12-29T02:28:24.381Z,7.30
2018-12-29T02:30:52.486Z,7.30
2018-12-29T02:33:20.725Z,7.30
2018-12-29T02:35:48.711Z,7.30
2018-12-29T02:38:16.577Z,7.30
2018-12-29T02:40:45.156Z,7.30
2018-12-29T02:43:13.628Z,7.30
2018-12-29T02:45:41.706Z,7.30
2018-12-29T02:48:09.972Z,7.30
2018-12-29T02:50:38.298Z,7.30
2018-12-29T02:53:06.606Z,7.20
2018-12-29T02:55:35.315Z,7.30
2018-12-29T02:58:03.737Z,7.20
2018-12-29T03:00:31.319Z,7.20
2018-12-29T03:02:59.116Z,7.20
2018-12-29T03:05:26.663Z,7.20
2018-12-29T03:07:54.803Z,7.20
2018-12-29T03:10:22.242Z,7.20
2018-12-29T03:12:49.910Z,7.20
2018-12-29T03:15:17.634Z,7.20
2018-12-29T03:17:45.324Z,7.20
2018-12-29T03:20:13.270Z,7.20
2018-12-29T03:22:41.223Z,7.20
2018-12-29T03:25:08.634Z,7.20
2018-12-29T03:27:36.331Z,7.20
2018-12-29T03:30:04.416Z,7.10
2018-12-29T03:32:31.968Z,7.20
2018-12-29T03:34:59.532Z,7.10
2018-12-29T03:37:27.702Z,7.10
2018-12-29T03:39:55.481Z,7.10
2018-12-29T03:42:22.996Z,7.10
2018-12-29T03:44:50.607Z,7.20
2018-12-29T03:47:18.709Z,7.20
2018-12-29T03:49:46.757Z,7.10
2018-12-29T03:52:14.813Z,7.10
2018-12-29T03:54:42.358Z,7.20
2018-12-29T03:57:10.019Z,7.10
2018-12-29T03:59:38.095Z,7.20
2018-12-29T04:02:05.975Z,7.20
2018-12-29T04:04:33.715Z,7.20
2018-12-29T04:07:01.461Z,7.20
2018-12-29T04:09:36.319Z,7.20
2018-12-29T04:12:27.253Z,7.20
2018-12-29T04:14:55.396Z,7.20
2018-12-29T04:17:23.041Z,7.20
2018-12-29T04:19:50.928Z,7.30
2018-12-29T04:22:18.556Z,7.20
2018-12-29T04:24:46.142Z,7.20
2018-12-29T04:27:14.004Z,7.20
2018-12-29T04:29:42.299Z,7.20
2018-12-29T04:32:10.087Z,7.20
2018-12-29T04:34:37.527Z,7.20
2018-12-29T04:37:05.102Z,7.20
2018-12-29T04:39:33.359Z,7.20
2018-12-29T04:42:01.245Z,7.20
2018-12-29T04:44:29.067Z,7.30
2018-12-29T04:46:56.931Z,7.20
2018-12-29T04:49:24.612Z,7.30
2018-12-29T04:51:52.267Z,7.30
2018-12-29T04:54:19.778Z,7.30
2018-12-29T04:56:47.535Z,7.50
2018-12-29T04:59:15.745Z,7.30
2018-12-29T05:01:43.526Z,7.20
2018-12-29T05:04:11.039Z,7.30
2018-12-29T05:06:38.955Z,7.30
2018-12-29T05:09:06.973Z,7.30
2018-12-29T05:11:34.517Z,7.30
2018-12-29T05:14:02.579Z,7.30
2018-12-29T05:16:30.828Z,7.30
2018-12-29T05:18:58.517Z,7.30
2018-12-29T05:21:25.956Z,7.00
2018-12-29T05:23:54.586Z,7.30
2018-12-29T05:26:22.324Z,7.30
2018-12-29T05:28:50.035Z,7.30
2018-12-29T05:31:17.390Z,7.30
2018-12-29T05:33:44.772Z,7.30
2018-12-29T05:36:12.401Z,7.30
2018-12-29T05:38:40.170Z,7.40
2018-12-29T05:41:07.950Z,7.30
2018-12-29T05:43:35.690Z,7.40
2018-12-29T05:46:03.126Z,7.40
2018-12-29T05:48:31.007Z,7.40
2018-12-29T05:50:58.362Z,7.30
2018-12-29T05:53:26.444Z,7.40
2018-12-29T05:55:54.236Z,7.40
2018-12-29T05:58:22.204Z,7.40
2018-12-29T06:00:49.942Z,7.40
2018-12-29T06:03:17.420Z,7.40
2018-12-29T06:05:44.803Z,7.40
2018-12-29T06:08:12.536Z,7.40
2018-12-29T06:10:39.866Z,7.40
2018-12-29T06:13:07.487Z,7.40
2018-12-29T06:15:35.535Z,7.40
2018-12-29T06:18:03.304Z,7.40
2018-12-29T06:20:30.946Z,7.40
2018-12-29T06:22:58.941Z,7.40
2018-12-29T06:25:26.672Z,7.40
2018-12-29T06:27:54.020Z,7.40
2018-12-29T06:30:21.839Z,7.40
2018-12-29T06:32:49.603Z,7.40
2018-12-29T06:35:17.858Z,7.40
2018-12-29T06:37:45.280Z,7.40
2018-12-29T06:40:13.365Z,7.40
2018-12-29T06:42:41.460Z,7.30
2018-12-29T06:45:09.307Z,7.40
2018-12-29T06:47:36.752Z,7.40
2018-12-29T06:50:04.435Z,7.40
2018-12-29T06:52:32.429Z,7.40
2018-12-29T06:54:59.971Z,7.40
2018-12-29T06:57:27.672Z,7.40
2018-12-29T06:59:55.282Z,7.40
2018-12-29T07:02:22.615Z,7.40
2018-12-29T07:04:51.179Z,7.40
2018-12-29T07:07:18.992Z,7.40
2018-12-29T07:09:46.765Z,7.40
2018-12-29T07:16:04.725Z,7.40
2018-12-29T07:18:32.784Z,7.40
2018-12-29T07:21:01.123Z,7.40
2018-12-29T07:23:29.951Z,7.40
2018-12-29T07:25:57.677Z,7.50
2018-12-29T07:28:25.679Z,7.50
2018-12-29T07:30:53.922Z,7.50
2018-12-29T07:33:21.613Z,7.50
2018-12-29T07:35:49.803Z,7.50
2018-12-29T07:38:17.897Z,7.50
2018-12-29T07:40:45.559Z,7.50
2018-12-29T07:43:13.057Z,7.50
2018-12-29T07:45:40.987Z,7.60
2018-12-29T07:48:08.885Z,7.60
2018-12-29T07:50:36.784Z,7.50
2018-12-29T07:53:04.585Z,7.60
2018-12-29T07:55:32.621Z,7.60
2018-12-29T07:58:00.114Z,7.60
2018-12-29T08:00:28.006Z,7.60
2018-12-29T08:02:56.832Z,7.60
2018-12-29T08:05:24.466Z,7.60
2018-12-29T08:07:52.344Z,7.60
2018-12-29T08:10:20.752Z,7.60
2018-12-29T08:12:48.489Z,7.60
2018-12-29T08:15:19.041Z,7.60
2018-12-29T08:17:46.744Z,7.60
2018-12-29T08:20:15.267Z,7.60
2018-12-29T08:22:43.147Z,7.60
2018-12-29T08:25:10.896Z,7.60
2018-12-29T08:27:40.653Z,7.60
2018-12-29T08:30:08.676Z,7.60
2018-12-29T08:32:36.804Z,7.70
2018-12-29T08:35:04.557Z,7.60
2018-12-29T08:37:32.490Z,7.60
2018-12-29T08:39:59.910Z,7.60
2018-12-29T08:42:27.208Z,7.60
2018-12-29T08:44:55.041Z,7.70
2018-12-29T08:47:22.731Z,7.70
2018-12-29T08:49:50.599Z,7.70
2018-12-29T08:52:18.242Z,7.70
2018-12-29T08:54:46.132Z,7.70
2018-12-29T08:57:13.878Z,7.60
2018-12-29T08:59:41.651Z,7.70
2018-12-29T09:02:09.169Z,7.70
2018-12-29T09:04:37.162Z,7.70
2018-12-29T09:07:05.273Z,7.70
2018-12-29T09:09:33.518Z,7.70
2018-12-29T09:12:01.417Z,7.70
2018-12-29T09:14:29.872Z,7.70
2018-12-29T09:16:57.383Z,7.70
2018-12-29T09:19:27.329Z,7.70
2018-12-29T09:21:55.086Z,7.70
2018-12-29T09:24:22.872Z,7.70
2018-12-29T09:26:51.062Z,7.70
2018-12-29T09:29:19.131Z,7.70
2018-12-29T09:31:47.429Z,7.70
2018-12-29T09:34:22.246Z,7.70
2018-12-29T09:36:45.330Z,7.70
2018-12-29T09:39:13.175Z,7.70
2018-12-29T09:41:41.089Z,7.70
2018-12-29T09:44:09.094Z,7.70
2018-12-29T09:46:36.991Z,7.70
2018-12-29T09:49:05.022Z,7.70
2018-12-29T09:51:32.784Z,7.70
2018-12-29T09:54:00.643Z,7.70
2018-12-29T09:56:28.173Z,7.70
2018-12-29T09:58:56.074Z,7.70
2018-12-29T10:01:24.041Z,7.80
2018-12-29T10:03:52.704Z,7.80
2018-12-29T10:06:21.046Z,7.70
2018-12-29T10:08:48.633Z,7.70
2018-12-29T10:11:16.968Z,7.70
2018-12-29T10:13:45.514Z,7.70
2018-12-29T10:16:13.538Z,7.80
2018-12-29T10:18:41.787Z,7.80
2018-12-29T10:21:09.785Z,7.80
2018-12-29T10:23:37.515Z,7.80
2018-12-29T10:26:07.029Z,7.80
2018-12-29T10:28:35.666Z,7.80
2018-12-29T10:31:03.127Z,7.80
2018-12-29T10:33:31.539Z,7.80
2018-12-29T10:35:59.036Z,7.80
2018-12-29T10:38:26.412Z,7.80
2018-12-29T10:40:54.116Z,7.80
2018-12-29T10:43:22.338Z,7.90
2018-12-29T10:45:49.784Z,7.80
2018-12-29T10:48:17.397Z,7.80
2018-12-29T10:50:45.594Z,7.80
2018-12-29T10:53:13.111Z,7.90
2018-12-29T10:55:42.288Z,7.90
2018-12-29T10:58:10.582Z,7.90
2018-12-29T11:00:41.292Z,7.90
2018-12-29T11:03:08.999Z,7.90
2018-12-29T11:05:36.868Z,7.90
2018-12-29T11:08:06.907Z,7.90
2018-12-29T11:10:35.035Z,7.90
2018-12-29T11:13:02.893Z,8.00
2018-12-29T11:15:30.915Z,8.00
2018-12-29T11:17:59.022Z,8.00
2018-12-29T11:20:28.644Z,8.00
2018-12-29T11:22:56.782Z,8.00
2018-12-29T11:25:24.369Z,8.00
2018-12-29T11:27:52.784Z,8.00
2018-12-29T11:30:21.457Z,8.10
2018-12-29T11:32:49.380Z,8.10
2018-12-29T11:35:17.126Z,8.10
2018-12-29T11:37:44.929Z,8.10
2018-12-29T11:40:13.161Z,8.20
2018-12-29T11:42:41.327Z,8.10
2018-12-29T11:45:09.978Z,8.10
2018-12-29T11:47:37.779Z,8.20
2018-12-29T11:50:05.939Z,8.10
2018-12-29T11:52:34.070Z,8.20
2018-12-29T11:55:01.986Z,8.20
2018-12-29T11:57:30.964Z,8.20
2018-12-29T11:59:59.254Z,8.20
2018-12-29T12:02:27.352Z,8.20
2018-12-29T12:04:55.071Z,8.20
2018-12-29T12:07:23.152Z,8.20
2018-12-29T12:09:51.247Z,8.30
2018-12-29T12:12:19.390Z,8.30
2018-12-29T12:14:47.430Z,8.30
2018-12-29T12:17:15.029Z,8.20
2018-12-29T12:19:42.599Z,8.10
2018-12-29T12:22:10.468Z,8.30
2018-12-29T12:24:38.105Z,8.30
2018-12-29T12:27:06.405Z,8.30
2018-12-29T12:29:34.339Z,8.40
2018-12-29T12:32:02.793Z,8.30
2018-12-29T12:34:30.802Z,8.30
2018-12-29T12:36:59.316Z,8.40
2018-12-29T12:39:27.185Z,8.30
2018-12-29T12:41:54.996Z,8.40
2018-12-29T12:44:22.736Z,8.40
2018-12-29T12:46:50.769Z,8.40
2018-12-29T12:49:18.447Z,8.40
2018-12-29T12:51:47.951Z,8.40
2018-12-29T12:54:15.887Z,8.40
2018-12-29T12:56:43.963Z,8.40
2018-12-29T12:59:12.140Z,8.40
2018-12-29T13:01:40.431Z,8.40
2018-12-29T13:04:09.311Z,8.40
2018-12-29T13:06:37.898Z,8.40
2018-12-29T13:09:06.450Z,8.40
2018-12-29T13:11:34.497Z,8.50
2018-12-29T13:14:04.710Z,8.40
2018-12-29T13:16:32.840Z,8.40
2018-12-29T13:19:01.215Z,8.40
2018-12-29T13:21:29.229Z,8.50
2018-12-29T13:23:57.097Z,8.40
2018-12-29T13:26:24.939Z,8.40
2018-12-29T13:28:54.236Z,8.40
2018-12-29T13:31:22.209Z,8.50
2018-12-29T13:33:50.186Z,8.50
2018-12-29T13:36:18.543Z,8.50
2018-12-29T13:38:46.316Z,8.50
2018-12-29T13:41:15.171Z,8.50
2018-12-29T13:43:42.861Z,8.50
2018-12-29T13:46:11.154Z,8.50
2018-12-29T13:48:39.472Z,8.50
2018-12-29T13:51:08.553Z,8.50
2018-12-29T13:53:36.666Z,8.50
2018-12-29T13:56:04.662Z,8.50
2018-12-29T13:58:33.522Z,8.50
2018-12-29T14:01:01.968Z,8.50
2018-12-29T14:03:29.874Z,8.70
2018-12-29T14:05:57.594Z,8.50
2018-12-29T14:08:25.762Z,8.50
2018-12-29T14:10:53.521Z,8.50
2018-12-29T14:13:23.509Z,8.50
2018-12-29T14:15:51.605Z,8.50
2018-12-29T14:18:19.850Z,8.10
2018-12-29T14:20:48.171Z,8.50
2018-12-29T14:23:16.286Z,8.50
2018-12-29T14:25:44.239Z,8.50
2018-12-29T14:28:12.056Z,8.50
2018-12-29T14:30:39.734Z,8.50
2018-12-29T14:33:11.842Z,8.50
2018-12-29T14:35:39.594Z,8.50
2018-12-29T14:38:07.338Z,8.50
2018-12-29T14:40:35.135Z,8.50
2018-12-29T14:43:03.045Z,8.50
2018-12-29T14:45:32.994Z,8.50
2018-12-29T14:48:01.041Z,8.50
2018-12-29T14:50:28.719Z,8.50
2018-12-29T14:52:56.659Z,8.50
2018-12-29T14:55:24.896Z,8.50
2018-12-29T14:57:52.726Z,8.60
2018-12-29T15:00:20.569Z,8.50
2018-12-29T15:02:48.964Z,8.50
2018-12-29T15:05:16.833Z,8.50
2018-12-29T15:07:44.757Z,8.50
2018-12-29T15:10:12.725Z,8.60
2018-12-29T15:12:43.099Z,8.50
2018-12-29T15:15:12.398Z,8.50
2018-12-29T15:17:40.867Z,8.50
2018-12-29T15:20:09.288Z,8.50
2018-12-29T15:22:37.487Z,8.50
2018-12-29T15:25:07.903Z,8.50
2018-12-29T15:27:35.951Z,8.50
2018-12-29T15:30:03.990Z,8.50
2018-12-29T15:32:32.235Z,8.50
2018-12-29T15:35:00.911Z,8.60
2018-12-29T15:37:29.360Z,8.50
2018-12-29T15:39:57.448Z,8.50
2018-12-29T15:42:26.049Z,8.50
2018-12-29T15:44:54.201Z,8.50
2018-12-29T15:47:22.393Z,8.50
2018-12-29T15:49:50.414Z,8.50
2018-12-29T15:52:18.547Z,8.50
2018-12-29T15:54:46.991Z,8.50
2018-12-29T15:57:15.156Z,8.50
2018-12-29T15:59:44.413Z,8.50
2018-12-29T16:02:12.516Z,8.50
2018-12-29T16:04:41.314Z,8.50
2018-12-29T16:07:08.961Z,8.50
2018-12-29T16:09:36.968Z,8.50
2018-12-29T16:12:05.084Z,8.50
2018-12-29T16:14:35.550Z,8.40
2018-12-29T16:17:02.943Z,8.50
2018-12-29T16:19:30.703Z,8.50
2018-12-29T16:21:58.293Z,8.40
2018-12-29T16:24:25.739Z,8.40
2018-12-29T16:26:53.700Z,8.40
2018-12-29T16:29:21.373Z,8.40
2018-12-29T16:31:49.349Z,8.40
2018-12-29T16:34:16.895Z,8.40
2018-12-29T16:36:44.530Z,8.40
2018-12-29T16:39:12.158Z,8.40
2018-12-29T16:41:40.361Z,8.40
2018-12-29T16:44:08.189Z,8.40
2018-12-29T16:46:36.579Z,8.40
2018-12-29T16:49:06.865Z,8.30
2018-12-29T16:51:33.676Z,8.40
2018-12-29T16:54:01.316Z,8.30
2018-12-29T16:56:29.608Z,8.30
2018-12-29T16:58:57.290Z,8.30
2018-12-29T17:01:25.154Z,8.40
2018-12-29T17:03:52.892Z,8.30
2018-12-29T17:06:20.482Z,8.40
2018-12-29T17:08:48.350Z,8.40
2018-12-29T17:11:16.024Z,8.40
2018-12-29T17:13:44.593Z,8.40
2018-12-29T17:16:12.552Z,8.40
2018-12-29T17:18:40.339Z,8.40
2018-12-29T17:21:08.940Z,8.40
2018-12-29T17:23:38.134Z,8.40
2018-12-29T17:26:05.808Z,8.40
2018-12-29T17:28:34.000Z,8.40
2018-12-29T17:31:01.678Z,8.40
2018-12-29T17:33:29.376Z,8.40
2018-12-29T17:35:57.517Z,8.40
2018-12-29T17:38:25.210Z,8.40
2018-12-29T17:40:55.316Z,8.40
2018-12-29T17:43:23.314Z,8.40
2018-12-29T17:45:51.547Z,8.40
2018-12-29T17:48:19.893Z,8.40
2018-12-29T17:50:48.123Z,8.40
2018-12-29T17:53:16.103Z,8.40
2018-12-29T17:55:44.353Z,8.40
2018-12-29T17:58:12.239Z,8.40
2018-12-29T18:00:39.936Z,8.50
2018-12-29T18:03:08.479Z,8.50
2018-12-29T18:05:36.296Z,8.50
2018-12-29T18:08:04.003Z,8.50
2018-12-29T18:10:31.667Z,8.50
2018-12-29T18:12:59.806Z,8.50
2018-12-29T18:15:28.532Z,8.50
2018-12-29T18:17:56.680Z,8.50
2018-12-29T18:20:24.651Z,8.50
2018-12-29T18:22:52.513Z,8.60
2018-12-29T18:25:20.211Z,8.50
2018-12-29T18:27:47.951Z,8.50
2018-12-29T18:30:15.659Z,8.60
2018-12-29T18:32:43.285Z,8.60
2018-12-29T18:35:12.130Z,8.60
2018-12-29T18:37:39.914Z,8.60
2018-12-29T18:40:07.894Z,8.60
2018-12-29T18:42:35.754Z,8.70
2018-12-29T18:45:03.898Z,8.60
2018-12-29T18:47:31.482Z,8.70
2018-12-29T18:49:59.112Z,8.70
2018-12-29T18:52:27.721Z,8.70
2018-12-29T18:54:55.231Z,8.70
2018-12-29T18:57:22.777Z,8.60
2018-12-29T18:59:50.622Z,8.60
2018-12-29T19:02:18.502Z,8.70
2018-12-29T19:04:46.320Z,8.70
2018-12-29T19:07:17.115Z,8.70
2018-12-29T19:09:45.860Z,8.70
2018-12-29T19:12:13.556Z,8.70
2018-12-29T19:14:41.782Z,8.70
2018-12-29T19:17:10.078Z,8.80
2018-12-29T19:19:37.949Z,8.80
2018-12-29T19:22:05.598Z,8.80
2018-12-29T19:24:33.450Z,8.80
2018-12-29T19:27:01.229Z,8.80
2018-12-29T19:29:28.783Z,8.80
2018-12-29T19:31:56.629Z,8.80
2018-12-29T19:34:25.050Z,8.80
2018-12-29T19:36:52.969Z,8.80
2018-12-29T19:39:20.903Z,8.80
2018-12-29T19:41:55.068Z,8.80
2018-12-29T19:44:18.787Z,8.80
2018-12-29T19:46:47.288Z,8.90
2018-12-29T19:49:15.346Z,8.90
2018-12-29T19:51:43.770Z,8.90
2018-12-29T19:54:11.627Z,8.90
2018-12-29T19:56:40.923Z,8.90
2018-12-29T19:59:08.820Z,8.90
2018-12-29T20:01:36.523Z,8.90
2018-12-29T20:04:04.968Z,9.00
2018-12-29T20:06:32.419Z,9.00
2018-12-29T20:09:00.189Z,9.00
2018-12-29T20:11:28.232Z,9.00
2018-12-29T20:13:56.074Z,9.00
2018-12-29T20:16:23.915Z,9.00
2018-12-29T20:18:51.902Z,9.10
2018-12-29T20:21:19.800Z,9.10
2018-12-29T20:23:47.748Z,9.10
2018-12-29T20:26:15.222Z,9.10
2018-12-29T20:28:42.774Z,9.10
2018-12-29T20:31:11.492Z,9.10
2018-12-29T20:33:39.807Z,9.10
2018-12-29T20:36:07.640Z,9.20
2018-12-29T20:38:35.434Z,8.80
2018-12-29T20:41:02.923Z,9.10
2018-12-29T20:43:30.711Z,9.20
2018-12-29T20:45:58.465Z,9.20
2018-12-29T20:48:26.429Z,9.10
2018-12-29T20:50:54.269Z,9.10
2018-12-29T20:53:21.977Z,9.20
2018-12-29T20:55:49.742Z,9.10
2018-12-29T20:58:18.852Z,9.10
2018-12-29T21:00:46.504Z,9.10
2018-12-29T21:03:14.205Z,9.20
2018-12-29T21:05:41.552Z,9.20
2018-12-29T21:08:09.495Z,9.20
2018-12-29T21:10:37.160Z,9.20
2018-12-29T21:13:05.366Z,9.20
2018-12-29T21:15:32.966Z,9.10
2018-12-29T21:18:00.520Z,9.10
2018-12-29T21:20:28.156Z,9.10
2018-12-29T21:22:56.114Z,9.10
2018-12-29T21:25:23.883Z,9.10
2018-12-29T21:27:52.293Z,9.10
2018-12-29T21:30:20.500Z,9.10
2018-12-29T21:32:48.346Z,9.00
2018-12-29T21:35:16.105Z,9.00
2018-12-29T21:37:43.641Z,9.00
2018-12-29T21:40:11.255Z,9.00
2018-12-29T21:42:39.524Z,9.10
2018-12-29T21:45:07.557Z,9.00
2018-12-29T21:47:35.126Z,9.00
2018-12-29T21:50:02.669Z,9.00
2018-12-29T21:52:30.087Z,9.00
2018-12-29T21:54:57.760Z,9.00
2018-12-29T21:57:25.697Z,9.00
2018-12-29T21:59:53.480Z,9.00
2018-12-29T22:02:21.549Z,9.00
2018-12-29T22:04:49.402Z,9.00
2018-12-29T22:07:17.522Z,9.00
2018-12-29T22:09:45.097Z,8.90
2018-12-29T22:12:13.553Z,9.00
2018-12-29T22:14:41.338Z,8.90
2018-12-29T22:17:09.144Z,8.90
2018-12-29T22:19:36.603Z,8.90
2018-12-29T22:22:05.110Z,8.90
2018-12-29T22:24:32.842Z,8.90
2018-12-29T22:27:00.934Z,8.90
2018-12-29T22:29:29.040Z,8.90
2018-12-29T22:31:57.263Z,8.90
2018-12-29T22:34:25.539Z,8.90
2018-12-29T22:36:53.169Z,8.90
2018-12-29T22:39:20.812Z,8.90
2018-12-29T22:41:48.780Z,8.90
2018-12-29T22:44:16.588Z,8.90
2018-12-29T22:46:44.089Z,8.90
2018-12-29T22:49:12.213Z,8.90
2018-12-29T22:51:40.170Z,8.90
2018-12-29T22:54:08.081Z,8.90
2018-12-29T22:56:35.550Z,8.90
2018-12-29T22:59:03.025Z,8.90
2018-12-29T23:01:31.453Z,9.10
2018-12-29T23:03:59.016Z,8.90
2018-12-29T23:06:26.623Z,8.90
2018-12-29T23:08:54.133Z,8.90
2018-12-29T23:11:21.912Z,8.90
2018-12-29T23:13:49.549Z,8.90
2018-12-29T23:16:17.419Z,8.90
2018-12-29T23:18:45.600Z,8.90
2018-12-29T23:21:13.469Z,8.90
2018-12-29T23:23:41.398Z,8.90
2018-12-29T23:26:09.259Z,8.90
2018-12-29T23:28:36.850Z,8.90
2018-12-29T23:31:05.166Z,8.90
2018-12-29T23:33:32.790Z,8.90
2018-12-29T23:36:00.589Z,8.90
2018-12-29T23:38:28.686Z,8.90
2018-12-29T23:40:56.315Z,8.90
2018-12-29T23:43:24.034Z,8.90
2018-12-29T23:45:51.488Z,8.90
2018-12-29T23:48:19.067Z,8.90
2018-12-29T23:50:46.749Z,8.90
2018-12-29T23:53:14.402Z,8.90
2018-12-29T23:55:42.439Z,8.90
2018-12-29T23:58:10.540Z,8.90
